Time;durP1;ratioP1;P1;durP2;ratioP2;P2;SDS_P1;SDS_P2;PMS_P1;PMS_P2;Temp;Humidity;BMP_temperature;BMP_pressure;BME280_temperature;BME280_humidity;BME280_pressure;Samples;Min_cycle;Max_cycle;Signal;HPM_P1;HPM_P2
2022/08/02 00:00:27;;;;;;;6.20;2.83;;;;;;;;;;5031657;28;20160;-76
2022/08/02 00:02:53;;;;;;;5.18;2.20;;;;;;;;;;5032659;28;20037;-79
2022/08/02 00:05:19;;;;;;;5.63;2.45;;;;;;;;;;5032148;28;20037;-75
2022/08/02 00:07:45;;;;;;;5.85;2.60;;;;;;;;;;5032442;28;20045;-76
2022/08/02 00:10:11;;;;;;;7.32;2.78;;;;;;;;;;5032562;28;20033;-80
2022/08/02 00:12:38;;;;;;;7.50;2.63;;;;;;;;;;5032673;28;20469;-78
2022/08/02 00:15:06;;;;;;;6.20;3.00;;;;;;;;;;5032366;28;20162;-77
2022/08/02 00:17:32;;;;;;;5.43;2.70;;;;;;;;;;5014581;28;20041;-77
2022/08/02 00:19:58;;;;;;;4.75;2.75;;;;;;;;;;5032351;28;20365;-77
2022/08/02 00:22:24;;;;;;;5.15;2.60;;;;;;;;;;5032117;28;20030;-79
2022/08/02 00:24:50;;;;;;;2.85;1.98;;;;;;;;;;5032214;28;20116;-77
2022/08/02 00:27:15;;;;;;;2.97;2.30;;;;;;;;;;5032277;28;20112;-78
2022/08/02 00:29:41;;;;;;;3.50;2.10;;;;;;;;;;5014571;28;20044;-78
2022/08/02 00:32:07;;;;;;;6.65;1.92;;;;;;;;;;5030565;28;20377;-77
2022/08/02 00:34:34;;;;;;;3.85;1.80;;;;;;;;;;5032121;28;20039;-77
2022/08/02 00:36:59;;;;;;;2.78;1.77;;;;;;;;;;5032136;28;20038;-78
2022/08/02 00:39:25;;;;;;;6.40;1.90;;;;;;;;;;5032295;28;20130;-77
2022/08/02 00:41:52;;;;;;;3.03;1.95;;;;;;;;;;5032106;28;20044;-78
2022/08/02 00:44:19;;;;;;;2.53;1.60;;;;;;;;;;5031926;28;20033;-79
2022/08/02 00:46:46;;;;;;;2.88;1.80;;;;;;;;;;5031865;28;20030;-78
2022/08/02 00:49:13;;;;;;;3.78;1.73;;;;;;;;;;5031890;28;20112;-78
2022/08/02 00:51:40;;;;;;;2.80;1.80;;;;;;;;;;5032027;28;20034;-78
2022/08/02 00:54:07;;;;;;;3.80;2.00;;;;;;;;;;5031744;28;20037;-78
2022/08/02 00:56:34;;;;;;;3.67;1.90;;;;;;;;;;5031666;28;20033;-78
2022/08/02 00:59:01;;;;;;;3.35;2.30;;;;;;;;;;5032054;28;20041;-77
2022/08/02 01:01:39;;;;;;;5.28;2.00;;;;;;;;;;5032127;28;20040;-78
2022/08/02 01:04:07;;;;;;;2.70;1.70;;;;;;;;;;5031927;28;20037;-78
2022/08/02 01:06:34;;;;;;;3.13;1.90;;;;;;;;;;5031943;28;20041;-76
2022/08/02 01:09:01;;;;;;;5.70;2.30;;;;;;;;;;5032432;28;20034;-77
2022/08/02 01:11:28;;;;;;;3.58;2.08;;;;;;;;;;5032010;28;20494;-77
2022/08/02 01:14:11;;;;;;;3.30;1.98;;;;;;;;;;5031631;28;20535;-77
2022/08/02 01:16:45;;;;;;;7.88;1.77;;;;;;;;;;5032319;28;20480;-78
2022/08/02 01:19:55;;;;;;;4.43;1.80;;;;;;;;;;5048785;28;20047;-78
2022/08/02 01:22:39;;;;;;;2.58;1.60;;;;;;;;;;5024183;28;20421;-77
2022/08/02 01:25:37;;;;;;;3.40;1.55;;;;;;;;;;5046869;28;20036;-78
2022/08/02 01:28:14;;;;;;;2.60;1.90;;;;;;;;;;5048783;28;20384;-76
2022/08/02 01:30:43;;;;;;;3.22;1.92;;;;;;;;;;5044392;28;20259;-77
2022/08/02 01:33:15;;;;;;;6.68;2.63;;;;;;;;;;5049501;28;20519;-77
2022/08/02 01:35:44;;;;;;;7.25;2.05;;;;;;;;;;5052919;28;20036;-78
2022/08/02 01:38:15;;;;;;;2.88;1.88;;;;;;;;;;5055856;28;20083;-77
2022/08/02 01:40:44;;;;;;;3.03;1.80;;;;;;;;;;5054568;28;20037;-77
2022/08/02 01:43:12;;;;;;;4.25;2.20;;;;;;;;;;5048073;28;20038;-78
2022/08/02 01:45:41;;;;;;;5.78;2.20;;;;;;;;;;5045606;28;20476;-78
2022/08/02 01:48:09;;;;;;;3.22;1.90;;;;;;;;;;5054576;28;20068;-77
2022/08/02 01:50:37;;;;;;;6.65;2.70;;;;;;;;;;5054908;28;20029;-78
2022/08/02 01:53:07;;;;;;;5.10;2.35;;;;;;;;;;5054953;28;20112;-79
2022/08/02 01:55:43;;;;;;;4.57;2.30;;;;;;;;;;5054325;28;20029;-79
2022/08/02 01:58:13;;;;;;;6.43;2.42;;;;;;;;;;5054076;28;20033;-80
2022/08/02 02:00:41;;;;;;;4.03;2.17;;;;;;;;;;5053453;28;20025;-79
2022/08/02 02:03:12;;;;;;;2.38;1.90;;;;;;;;;;5054112;28;20033;-79
2022/08/02 02:05:39;;;;;;;5.10;2.20;;;;;;;;;;5054105;28;20025;-79
2022/08/02 02:08:06;;;;;;;5.38;2.28;;;;;;;;;;5053469;28;20128;-76
2022/08/02 02:10:34;;;;;;;4.22;2.50;;;;;;;;;;5054156;28;20029;-78
2022/08/02 02:13:08;;;;;;;7.63;2.72;;;;;;;;;;5053950;28;20029;-76
2022/08/02 02:15:35;;;;;;;6.72;2.80;;;;;;;;;;5054615;28;20450;-76
2022/08/02 02:18:02;;;;;;;5.88;3.00;;;;;;;;;;5054492;28;20037;-77
2022/08/02 02:20:28;;;;;;;4.88;2.90;;;;;;;;;;5054326;28;20060;-76
2022/08/02 02:22:54;;;;;;;7.05;3.38;;;;;;;;;;5036464;28;20041;-78
2022/08/02 02:25:21;;;;;;;6.40;2.70;;;;;;;;;;5053920;28;20029;-78
2022/08/02 02:28:03;;;;;;;9.85;7.45;;;;;;;;;;5054505;28;20110;-78
2022/08/02 02:30:31;;;;;;;8.38;4.10;;;;;;;;;;5054409;28;20029;-78
2022/08/02 02:33:00;;;;;;;4.82;3.67;;;;;;;;;;5053346;28;20484;-72
2022/08/02 02:35:29;;;;;;;7.72;4.07;;;;;;;;;;5054497;28;20488;-78
2022/08/02 02:37:57;;;;;;;8.73;3.83;;;;;;;;;;5054494;28;20388;-79
2022/08/02 02:40:26;;;;;;;12.85;4.03;;;;;;;;;;5054991;28;20056;-76
2022/08/02 02:42:53;;;;;;;8.80;3.83;;;;;;;;;;5054792;28;20039;-77
2022/08/02 02:45:20;;;;;;;5.93;3.42;;;;;;;;;;5053778;28;20377;-78
2022/08/02 02:47:48;;;;;;;10.30;4.88;;;;;;;;;;5054686;28;20126;-78
2022/08/02 02:50:17;;;;;;;6.22;4.10;;;;;;;;;;5054380;28;20060;-73
2022/08/02 02:52:43;;;;;;;8.48;4.80;;;;;;;;;;5054842;28;20052;-77
2022/08/02 02:55:10;;;;;;;8.18;4.53;;;;;;;;;;5054904;28;20037;-74
2022/08/02 02:57:37;;;;;;;9.02;3.95;;;;;;;;;;5054696;28;20045;-79
2022/08/02 03:00:10;;;;;;;5.28;3.67;;;;;;;;;;5054938;28;20502;-75
2022/08/02 03:02:42;;;;;;;8.27;3.90;;;;;;;;;;5054296;28;20052;-72
2022/08/02 03:05:09;;;;;;;12.43;4.30;;;;;;;;;;5054476;28;20036;-80
2022/08/02 03:07:36;;;;;;;11.18;4.80;;;;;;;;;;5054234;28;20467;-77
2022/08/02 03:10:04;;;;;;;9.55;3.67;;;;;;;;;;5054512;28;20029;-79
2022/08/02 03:12:30;;;;;;;8.35;3.97;;;;;;;;;;5054254;28;20039;-79
2022/08/02 03:14:58;;;;;;;10.65;4.50;;;;;;;;;;5053650;28;20469;-79
2022/08/02 03:17:24;;;;;;;15.85;4.35;;;;;;;;;;5054263;28;20029;-78
2022/08/02 03:19:50;;;;;;;6.13;3.58;;;;;;;;;;5051224;28;20082;-76
2022/08/02 03:22:15;;;;;;;8.32;3.25;;;;;;;;;;5048812;28;20116;-76
2022/08/02 03:24:41;;;;;;;6.40;3.17;;;;;;;;;;5053522;28;20549;-74
2022/08/02 03:27:07;;;;;;;6.22;3.00;;;;;;;;;;5053956;28;20041;-75
2022/08/02 03:29:33;;;;;;;5.32;3.05;;;;;;;;;;5048330;28;20075;-76
2022/08/02 03:31:59;;;;;;;5.30;3.25;;;;;;;;;;5041813;28;20049;-75
2022/08/02 03:34:25;;;;;;;6.97;3.03;;;;;;;;;;5034477;28;20477;-78
2022/08/02 03:36:55;;;;;;;5.78;2.97;;;;;;;;;;5034169;28;20040;-77
2022/08/02 03:39:21;;;;;;;5.28;3.13;;;;;;;;;;5034348;28;20095;-75
2022/08/02 03:41:49;;;;;;;6.25;3.25;;;;;;;;;;5033595;28;20030;-77
2022/08/02 03:44:15;;;;;;;6.82;2.90;;;;;;;;;;5033916;28;20459;-77
2022/08/02 03:46:42;;;;;;;6.60;3.33;;;;;;;;;;5033947;28;20057;-77
2022/08/02 03:49:09;;;;;;;4.38;2.83;;;;;;;;;;5033886;28;20044;-72
2022/08/02 03:51:36;;;;;;;8.02;2.83;;;;;;;;;;5033739;28;20465;-78
2022/08/02 03:54:02;;;;;;;5.50;3.20;;;;;;;;;;5033513;28;20080;-78
2022/08/02 03:56:29;;;;;;;7.05;3.03;;;;;;;;;;5033260;28;20041;-78
2022/08/02 03:59:12;;;;;;;6.50;3.10;;;;;;;;;;5033336;28;20083;-75
2022/08/02 04:01:40;;;;;;;10.27;3.53;;;;;;;;;;5035380;28;20067;-78
2022/08/02 04:04:07;;;;;;;9.15;3.53;;;;;;;;;;5033588;28;20092;-79
2022/08/02 04:06:33;;;;;;;11.95;4.20;;;;;;;;;;5033869;28;20090;-79
2022/08/02 04:08:59;;;;;;;8.40;3.70;;;;;;;;;;5033566;28;20115;-81
2022/08/02 04:11:31;;;;;;;10.48;3.58;;;;;;;;;;5033701;28;20029;-80
2022/08/02 04:14:01;;;;;;;6.05;3.00;;;;;;;;;;5033343;28;20029;-76
2022/08/02 04:16:36;;;;;;;7.13;3.10;;;;;;;;;;5033208;28;20072;-76
2022/08/02 04:19:04;;;;;;;8.73;3.13;;;;;;;;;;5033140;28;20033;-77
2022/08/02 04:21:33;;;;;;;8.80;3.30;;;;;;;;;;5033175;28;20454;-78
2022/08/02 04:24:02;;;;;;;7.20;3.22;;;;;;;;;;5033215;28;20037;-74
2022/08/02 04:26:31;;;;;;;6.57;3.25;;;;;;;;;;5033479;28;20030;-76
2022/08/02 04:28:58;;;;;;;5.30;2.90;;;;;;;;;;5033214;28;20037;-78
2022/08/02 04:31:24;;;;;;;9.85;3.72;;;;;;;;;;5032820;28;20036;-79
2022/08/02 04:33:50;;;;;;;5.65;3.33;;;;;;;;;;5032410;28;20412;-77
2022/08/02 04:36:16;;;;;;;9.60;2.90;;;;;;;;;;5032939;28;20033;-78
2022/08/02 04:38:42;;;;;;;9.45;3.60;;;;;;;;;;5032635;28;20032;-76
2022/08/02 04:41:08;;;;;;;7.95;3.38;;;;;;;;;;5032733;28;20037;-77
2022/08/02 04:43:34;;;;;;;8.95;3.83;;;;;;;;;;5032500;28;20105;-76
2022/08/02 04:46:02;;;;;;;14.05;5.22;;;;;;;;;;5032886;28;20144;-75
2022/08/02 04:48:28;;;;;;;25.33;9.55;;;;;;;;;;5032503;28;20044;-74
2022/08/02 04:50:55;;;;;;;26.45;12.88;;;;;;;;;;5044782;28;20035;-77
2022/08/02 04:53:21;;;;;;;28.08;10.73;;;;;;;;;;5050082;28;20037;-77
2022/08/02 04:55:47;;;;;;;31.38;9.43;;;;;;;;;;5052719;28;20389;-76
2022/08/02 04:58:13;;;;;;;29.17;11.43;;;;;;;;;;5051729;28;20029;-75
2022/08/02 05:00:39;;;;;;;29.85;12.77;;;;;;;;;;5052694;28;20090;-78
2022/08/02 05:03:06;;;;;;;34.88;12.07;;;;;;;;;;5052377;28;20094;-76
2022/08/02 05:05:32;;;;;;;30.60;8.52;;;;;;;;;;5051403;28;20707;-78
2022/08/02 05:07:58;;;;;;;20.48;8.15;;;;;;;;;;5051325;28;20033;-76
2022/08/02 05:10:24;;;;;;;38.10;8.85;;;;;;;;;;5055337;28;20033;-76
2022/08/02 05:12:50;;;;;;;20.08;6.82;;;;;;;;;;5056642;28;20033;-77
2022/08/02 05:15:17;;;;;;;22.70;6.18;;;;;;;;;;5056456;28;20396;-75
2022/08/02 05:17:47;;;;;;;23.15;4.53;;;;;;;;;;5055454;28;20036;-77
2022/08/02 05:20:14;;;;;;;16.30;4.47;;;;;;;;;;5054526;28;20033;-76
2022/08/02 05:22:41;;;;;;;12.13;3.88;;;;;;;;;;5056267;28;20145;-78
2022/08/02 05:25:07;;;;;;;19.65;4.22;;;;;;;;;;5056238;28;20440;-76
2022/08/02 05:27:33;;;;;;;17.63;3.65;;;;;;;;;;5056426;28;20486;-78
2022/08/02 05:29:59;;;;;;;11.80;4.03;;;;;;;;;;5056326;28;20094;-75
2022/08/02 05:32:26;;;;;;;23.63;4.40;;;;;;;;;;5048379;28;20038;-78
2022/08/02 05:34:52;;;;;;;18.02;4.57;;;;;;;;;;5034506;28;20124;-81
2022/08/02 05:37:18;;;;;;;12.77;3.95;;;;;;;;;;5036087;28;20045;-78
2022/08/02 05:39:44;;;;;;;10.10;3.58;;;;;;;;;;5036387;28;20119;-78
2022/08/02 05:42:10;;;;;;;13.43;3.47;;;;;;;;;;5047439;28;20065;-81
2022/08/02 05:44:36;;;;;;;9.38;3.47;;;;;;;;;;5018914;28;20116;-77
2022/08/02 05:47:02;;;;;;;19.95;4.68;;;;;;;;;;5035928;28;20140;-76
2022/08/02 05:49:28;;;;;;;17.90;3.80;;;;;;;;;;5036944;28;20116;-76
2022/08/02 05:52:14;;;;;;;13.35;4.10;;;;;;;;;;5037824;28;20066;-77
2022/08/02 05:54:53;;;;;;;18.50;9.80;;;;;;;;;;5036942;28;20033;-77
2022/08/02 05:57:33;;;;;;;14.63;3.78;;;;;;;;;;5036453;28;20064;-78
2022/08/02 06:00:12;;;;;;;9.50;3.38;;;;;;;;;;5036213;28;20033;-78
2022/08/02 06:02:41;;;;;;;8.88;3.33;;;;;;;;;;5036507;28;20080;-78
2022/08/02 06:05:13;;;;;;;7.22;3.03;;;;;;;;;;5035956;28;20045;-77
2022/08/02 06:07:43;;;;;;;11.60;3.08;;;;;;;;;;5035732;28;20033;-76
2022/08/02 06:10:14;;;;;;;5.72;2.60;;;;;;;;;;5035858;28;20548;-77
2022/08/02 06:13:08;;;;;;;4.95;2.65;;;;;;;;;;5035834;28;20022;-78
2022/08/02 06:15:39;;;;;;;7.75;3.00;;;;;;;;;;5035646;28;20524;-79
2022/08/02 06:18:06;;;;;;;6.68;2.60;;;;;;;;;;5035761;28;20033;-79
2022/08/02 06:20:36;;;;;;;8.88;3.15;;;;;;;;;;5035237;28;20167;-78
2022/08/02 06:23:04;;;;;;;5.93;2.90;;;;;;;;;;5035423;28;20534;-74
2022/08/02 06:25:32;;;;;;;5.80;2.50;;;;;;;;;;5035676;28;20034;-77
2022/08/02 06:28:00;;;;;;;9.18;2.80;;;;;;;;;;5035657;28;20120;-76
2022/08/02 06:30:27;;;;;;;7.88;2.47;;;;;;;;;;5035835;28;20033;-78
2022/08/02 06:32:53;;;;;;;4.57;2.45;;;;;;;;;;5035309;28;20037;-77
2022/08/02 06:35:20;;;;;;;8.30;2.60;;;;;;;;;;5035320;28;20034;-80
2022/08/02 06:38:01;;;;;;;6.25;2.70;;;;;;;;;;5035771;28;20045;-82
2022/08/02 06:40:52;;;;;;;12.30;3.42;;;;;;;;;;5035413;28;20415;-77
2022/08/02 06:43:26;;;;;;;7.75;2.63;;;;;;;;;;5035263;28;20041;-78
2022/08/02 06:45:51;;;;;;;6.85;2.55;;;;;;;;;;5036691;28;20033;-84
2022/08/02 06:48:17;;;;;;;3.42;2.47;;;;;;;;;;5035409;28;20041;-85
2022/08/02 06:50:43;;;;;;;5.90;2.60;;;;;;;;;;5035599;28;20045;-82
2022/08/02 06:53:10;;;;;;;12.27;2.70;;;;;;;;;;5034555;28;20108;-84
2022/08/02 06:55:36;;;;;;;7.05;2.35;;;;;;;;;;5035167;28;20040;-76
2022/08/02 06:58:02;;;;;;;4.55;2.28;;;;;;;;;;5043726;28;20036;-79
2022/08/02 07:00:30;;;;;;;13.82;2.70;;;;;;;;;;5054821;28;20108;-84
2022/08/02 07:02:56;;;;;;;4.43;2.55;;;;;;;;;;5054565;28;20060;-82
2022/08/02 07:05:22;;;;;;;4.50;1.90;;;;;;;;;;5054704;28;20488;-80
2022/08/02 07:07:48;;;;;;;3.75;1.80;;;;;;;;;;5054636;28;20480;-81
2022/08/02 07:10:15;;;;;;;10.07;2.65;;;;;;;;;;5054543;28;20526;-83
2022/08/02 07:12:41;;;;;;;8.15;2.72;;;;;;;;;;5053653;28;20033;-80
2022/08/02 07:15:09;;;;;;;4.85;1.98;;;;;;;;;;5054129;28;20564;-78
2022/08/02 07:17:35;;;;;;;6.93;1.95;;;;;;;;;;5054548;28;20503;-81
2022/08/02 07:20:02;;;;;;;5.68;1.77;;;;;;;;;;5055113;28;20060;-76
2022/08/02 07:22:28;;;;;;;4.45;2.08;;;;;;;;;;5055813;28;20426;-77
2022/08/02 07:24:57;;;;;;;3.60;2.00;;;;;;;;;;5053615;28;20028;-79
2022/08/02 07:27:23;;;;;;;5.25;2.05;;;;;;;;;;5049566;28;20041;-79
2022/08/02 07:29:50;;;;;;;7.00;1.80;;;;;;;;;;5036332;28;20033;-79
2022/08/02 07:32:21;;;;;;;3.28;2.00;;;;;;;;;;5045238;28;20045;-80
2022/08/02 07:34:48;;;;;;;3.92;1.90;;;;;;;;;;5054393;28;20029;-79
2022/08/02 07:37:14;;;;;;;5.18;2.13;;;;;;;;;;5054179;28;20444;-83
2022/08/02 07:39:40;;;;;;;3.15;1.90;;;;;;;;;;5055652;28;20029;-80
2022/08/02 07:42:06;;;;;;;3.40;1.88;;;;;;;;;;5054356;28;20471;-79
2022/08/02 07:44:35;;;;;;;4.40;1.95;;;;;;;;;;5053759;28;20104;-78
2022/08/02 07:47:02;;;;;;;7.45;1.90;;;;;;;;;;5054259;28;20105;-73
2022/08/02 07:49:28;;;;;;;12.25;2.15;;;;;;;;;;5054258;28;20087;-79
2022/08/02 07:51:54;;;;;;;8.75;2.65;;;;;;;;;;5054218;28;20495;-78
2022/08/02 07:54:20;;;;;;;8.98;2.13;;;;;;;;;;5053435;28;20075;-80
2022/08/02 07:56:46;;;;;;;4.70;1.90;;;;;;;;;;5053799;28;20044;-78
2022/08/02 07:59:13;;;;;;;8.02;2.00;;;;;;;;;;5053349;28;20112;-79
2022/08/02 08:01:39;;;;;;;9.02;2.03;;;;;;;;;;5053238;28;20401;-76
2022/08/02 08:04:05;;;;;;;4.07;2.10;;;;;;;;;;5053253;28;20095;-77
2022/08/02 08:06:31;;;;;;;10.35;2.25;;;;;;;;;;5053506;28;20067;-77
2022/08/02 08:08:58;;;;;;;4.75;1.98;;;;;;;;;;5053698;28;20064;-77
2022/08/02 08:11:24;;;;;;;4.32;1.70;;;;;;;;;;5052979;28;20037;-77
2022/08/02 08:13:50;;;;;;;3.67;1.75;;;;;;;;;;5052610;28;20174;-77
2022/08/02 08:16:17;;;;;;;2.95;1.80;;;;;;;;;;5052111;28;20073;-77
2022/08/02 08:18:43;;;;;;;5.70;2.10;;;;;;;;;;5052220;28;20395;-78
2022/08/02 08:21:09;;;;;;;6.75;2.00;;;;;;;;;;5053227;28;20167;-77
2022/08/02 08:23:36;;;;;;;5.38;1.60;;;;;;;;;;5052488;28;20135;-77
2022/08/02 08:26:02;;;;;;;11.80;3.53;;;;;;;;;;5052553;28;20085;-77
2022/08/02 08:28:28;;;;;;;3.83;1.65;;;;;;;;;;5052194;28;20029;-77
2022/08/02 08:30:54;;;;;;;4.95;1.90;;;;;;;;;;5052443;28;20037;-75
2022/08/02 08:33:20;;;;;;;4.05;1.98;;;;;;;;;;5052912;28;20491;-78
2022/08/02 08:35:46;;;;;;;4.00;1.77;;;;;;;;;;5052199;28;20032;-78
2022/08/02 08:38:14;;;;;;;3.17;1.73;;;;;;;;;;5034490;28;20556;-77
2022/08/02 08:40:41;;;;;;;7.15;1.90;;;;;;;;;;5051737;28;20087;-78
2022/08/02 08:43:06;;;;;;;3.78;1.80;;;;;;;;;;5052293;28;20407;-77
2022/08/02 08:45:33;;;;;;;4.68;2.05;;;;;;;;;;5052382;28;20068;-76
2022/08/02 08:48:12;;;;;;;3.72;1.60;;;;;;;;;;5051826;28;20041;-78
2022/08/02 08:50:47;;;;;;;4.32;1.70;;;;;;;;;;5051983;28;20107;-76
2022/08/02 08:53:14;;;;;;;12.63;1.98;;;;;;;;;;5051675;28;20039;-76
2022/08/02 08:55:40;;;;;;;2.33;1.80;;;;;;;;;;5051778;28;20112;-76
2022/08/02 08:58:06;;;;;;;3.67;2.10;;;;;;;;;;5052032;28;20091;-74
2022/08/02 09:00:34;;;;;;;4.72;1.70;;;;;;;;;;5052186;28;20072;-74
2022/08/02 09:03:04;;;;;;;5.10;2.00;;;;;;;;;;5052297;28;20559;-77
2022/08/02 09:05:34;;;;;;;3.78;1.85;;;;;;;;;;5051748;28;20103;-76
2022/08/02 09:08:00;;;;;;;4.03;1.90;;;;;;;;;;5051923;28;20079;-77
2022/08/02 09:10:43;;;;;;;4.25;2.00;;;;;;;;;;5051922;28;20427;-80
2022/08/02 09:13:16;;;;;;;2.75;1.88;;;;;;;;;;5051583;28;20052;-77
2022/08/02 09:15:44;;;;;;;8.13;1.80;;;;;;;;;;5052012;28;20472;-78
2022/08/02 09:18:11;;;;;;;4.50;1.88;;;;;;;;;;5051511;28;20029;-75
2022/08/02 09:20:56;;;;;;;6.75;2.05;;;;;;;;;;5052274;28;20028;-77
2022/08/02 09:23:23;;;;;;;2.72;2.00;;;;;;;;;;5052020;28;20365;-75
2022/08/02 09:26:03;;;;;;;3.17;1.73;;;;;;;;;;5051948;28;20037;-78
2022/08/02 09:28:35;;;;;;;4.70;1.75;;;;;;;;;;5051853;28;20590;-76
2022/08/02 09:31:08;;;;;;;10.32;2.25;;;;;;;;;;5051357;28;20033;-74
2022/08/02 09:33:36;;;;;;;3.13;1.98;;;;;;;;;;5051661;28;20041;-77
2022/08/02 09:36:06;;;;;;;5.00;1.65;;;;;;;;;;5051712;28;20116;-75
2022/08/02 09:38:34;;;;;;;6.25;1.60;;;;;;;;;;5049668;28;20151;-78
2022/08/02 09:41:01;;;;;;;8.95;2.38;;;;;;;;;;5050206;28;20550;-77
2022/08/02 09:43:42;;;;;;;8.65;2.65;;;;;;;;;;5051944;28;20037;-79
2022/08/02 09:46:16;;;;;;;13.55;2.75;;;;;;;;;;5051635;28;20060;-77
2022/08/02 09:48:47;;;;;;;8.07;2.95;;;;;;;;;;5051767;28;20037;-74
2022/08/02 09:51:17;;;;;;;5.43;1.92;;;;;;;;;;5052012;28;20116;-76
2022/08/02 09:53:43;;;;;;;6.50;2.35;;;;;;;;;;5052143;28;20036;-78
2022/08/02 09:56:09;;;;;;;5.22;1.90;;;;;;;;;;5054443;28;20037;-75
2022/08/02 09:58:39;;;;;;;3.10;2.00;;;;;;;;;;5056159;28;20049;-78
2022/08/02 10:01:05;;;;;;;3.17;1.88;;;;;;;;;;5055734;28;20120;-79
2022/08/02 10:03:31;;;;;;;3.03;1.83;;;;;;;;;;5055070;28;20129;-78
2022/08/02 10:05:57;;;;;;;2.35;1.80;;;;;;;;;;5055485;28;20107;-77
2022/08/02 10:08:25;;;;;;;2.90;1.92;;;;;;;;;;5056113;28;20468;-77
2022/08/02 10:11:00;;;;;;;2.17;1.80;;;;;;;;;;5056340;28;20108;-77
2022/08/02 10:13:31;;;;;;;5.80;1.80;;;;;;;;;;5055710;28;20025;-78
2022/08/02 10:15:57;;;;;;;5.30;1.83;;;;;;;;;;5038561;28;20489;-77
2022/08/02 10:18:23;;;;;;;2.58;1.90;;;;;;;;;;5056956;28;20036;-80
2022/08/02 10:20:49;;;;;;;3.10;2.00;;;;;;;;;;5053308;28;20017;-78
2022/08/02 10:23:18;;;;;;;4.55;2.08;;;;;;;;;;5056121;28;20082;-78
2022/08/02 10:25:46;;;;;;;2.30;1.80;;;;;;;;;;5056198;28;20096;-79
2022/08/02 10:28:15;;;;;;;4.60;2.60;;;;;;;;;;5057106;28;20033;-77
2022/08/02 10:30:44;;;;;;;4.28;2.20;;;;;;;;;;5055811;28;20029;-78
2022/08/02 10:33:11;;;;;;;4.88;1.95;;;;;;;;;;5055441;28;20048;-79
2022/08/02 10:35:39;;;;;;;4.22;2.17;;;;;;;;;;5056754;28;20414;-72
2022/08/02 10:38:09;;;;;;;3.72;2.00;;;;;;;;;;5055589;28;20067;-76
2022/08/02 10:40:42;;;;;;;4.75;1.98;;;;;;;;;;5054341;28;20417;-77
2022/08/02 10:43:08;;;;;;;5.22;1.95;;;;;;;;;;5055149;28;20472;-75
2022/08/02 10:45:34;;;;;;;6.55;2.20;;;;;;;;;;5054863;28;20028;-75
2022/08/02 10:48:15;;;;;;;2.70;2.00;;;;;;;;;;5054595;28;20033;-77
2022/08/02 10:50:44;;;;;;;5.32;2.08;;;;;;;;;;5054311;28;20033;-77
2022/08/02 10:53:32;;;;;;;5.95;1.85;;;;;;;;;;5053679;28;20099;-76
2022/08/02 10:56:00;;;;;;;4.00;1.80;;;;;;;;;;5054468;28;20082;-75
2022/08/02 10:58:28;;;;;;;4.50;2.30;;;;;;;;;;5054490;28;20116;-74
2022/08/02 11:00:56;;;;;;;7.50;2.10;;;;;;;;;;5054652;28;20300;-76
2022/08/02 11:03:28;;;;;;;2.60;1.90;;;;;;;;;;5054090;28;20074;-76
2022/08/02 11:06:04;;;;;;;3.00;2.10;;;;;;;;;;5053474;28;20090;-75
2022/08/02 11:08:30;;;;;;;4.10;1.90;;;;;;;;;;5053191;28;20293;-76
2022/08/02 11:11:13;;;;;;;3.35;2.20;;;;;;;;;;5054481;28;20048;-77
2022/08/02 11:14:01;;;;;;;3.58;2.28;;;;;;;;;;5054331;28;20029;-78
2022/08/02 11:16:55;;;;;;;3.75;2.10;;;;;;;;;;5054105;28;20507;-76
2022/08/02 11:19:25;;;;;;;5.55;2.30;;;;;;;;;;5053663;28;20170;-76
2022/08/02 11:22:08;;;;;;;6.22;2.35;;;;;;;;;;5053994;28;20116;-73
2022/08/02 11:24:37;;;;;;;3.83;2.03;;;;;;;;;;5053806;28;20033;-76
2022/08/02 11:27:05;;;;;;;6.35;2.15;;;;;;;;;;5053894;28;20553;-78
2022/08/02 11:29:37;;;;;;;7.53;2.58;;;;;;;;;;5053651;28;20110;-77
2022/08/02 11:32:04;;;;;;;3.83;2.40;;;;;;;;;;5047406;28;20060;-76
2022/08/02 11:34:32;;;;;;;3.75;2.10;;;;;;;;;;5043382;28;20275;-77
2022/08/02 11:37:00;;;;;;;8.13;2.05;;;;;;;;;;5035827;28;21453;-77
2022/08/02 11:39:25;;;;;;;5.93;1.98;;;;;;;;;;5042599;28;20039;-76
2022/08/02 11:41:55;;;;;;;4.28;2.20;;;;;;;;;;5037289;28;20127;-75
2022/08/02 11:44:25;;;;;;;4.57;1.85;;;;;;;;;;5048168;28;20072;-79
2022/08/02 11:47:01;;;;;;;4.28;2.10;;;;;;;;;;5043928;28;20032;-76
2022/08/02 11:49:28;;;;;;;8.32;3.05;;;;;;;;;;5033102;28;20038;-77
2022/08/02 11:51:56;;;;;;;3.97;2.40;;;;;;;;;;5033713;28;20112;-78
2022/08/02 11:54:33;;;;;;;2.85;2.20;;;;;;;;;;5053918;28;20043;-78
2022/08/02 11:57:28;;;;;;;5.97;2.10;;;;;;;;;;5053618;28;20033;-78
2022/08/02 11:59:55;;;;;;;4.22;2.10;;;;;;;;;;5023370;28;20049;-77
2022/08/02 12:02:30;;;;;;;5.13;2.30;;;;;;;;;;5033372;28;20060;-76
2022/08/02 12:04:57;;;;;;;4.82;2.03;;;;;;;;;;5038196;28;20384;-75
2022/08/02 12:07:29;;;;;;;4.88;2.50;;;;;;;;;;5035246;28;20094;-76
2022/08/02 12:10:03;;;;;;;4.47;2.47;;;;;;;;;;5038420;28;20449;-77
2022/08/02 12:12:29;;;;;;;3.47;2.10;;;;;;;;;;5042661;28;20037;-77
2022/08/02 12:14:55;;;;;;;2.90;2.13;;;;;;;;;;5034524;28;20037;-78
2022/08/02 12:20:34;;;;;;;7.97;2.60;;;;;;;;;;4980320;28;20042;-79
2022/08/02 12:23:04;;;;;;;4.93;2.22;;;;;;;;;;5052873;28;20107;-79
2022/08/02 12:25:30;;;;;;;4.07;1.90;;;;;;;;;;5053073;28;20029;-78
2022/08/02 12:28:21;;;;;;;6.40;2.20;;;;;;;;;;5034540;28;20041;-76
2022/08/02 12:30:58;;;;;;;4.10;2.25;;;;;;;;;;5052619;28;20108;-78
2022/08/02 12:33:45;;;;;;;5.32;2.42;;;;;;;;;;5043645;28;20068;-77
2022/08/02 12:36:18;;;;;;;3.90;2.05;;;;;;;;;;5040877;28;20029;-77
2022/08/02 12:38:58;;;;;;;4.30;2.10;;;;;;;;;;5051307;28;20025;-75
2022/08/02 12:41:26;;;;;;;6.15;2.10;;;;;;;;;;5041899;28;20029;-77
2022/08/02 12:43:53;;;;;;;5.38;2.15;;;;;;;;;;5034681;28;20105;-74
2022/08/02 12:46:21;;;;;;;5.13;2.40;;;;;;;;;;5028661;28;20037;-75
2022/08/02 12:48:48;;;;;;;5.97;2.55;;;;;;;;;;5050668;28;20387;-75
2022/08/02 12:51:27;;;;;;;5.43;2.78;;;;;;;;;;5049476;28;20028;-75
2022/08/02 12:54:09;;;;;;;3.25;1.98;;;;;;;;;;5051680;28;20104;-77
2022/08/02 12:56:37;;;;;;;4.95;2.10;;;;;;;;;;5051492;28;20067;-77
2022/08/02 12:59:03;;;;;;;4.25;2.10;;;;;;;;;;5050087;28;20035;-75
2022/08/02 13:01:30;;;;;;;5.80;2.30;;;;;;;;;;5051253;28;20534;-75
2022/08/02 13:03:57;;;;;;;5.00;2.10;;;;;;;;;;5051343;28;20028;-76
2022/08/02 13:06:24;;;;;;;4.68;2.50;;;;;;;;;;5050733;28;20120;-77
2022/08/02 13:08:52;;;;;;;5.15;2.08;;;;;;;;;;5051491;28;20032;-76
2022/08/02 13:11:18;;;;;;;2.50;1.67;;;;;;;;;;5050312;28;20045;-74
2022/08/02 13:13:44;;;;;;;5.55;2.10;;;;;;;;;;5048983;28;20087;-76
2022/08/02 13:16:10;;;;;;;6.10;2.30;;;;;;;;;;5050854;28;20402;-77
2022/08/02 13:18:37;;;;;;;4.78;2.20;;;;;;;;;;5051059;28;20084;-75
2022/08/02 13:21:05;;;;;;;9.13;2.47;;;;;;;;;;5050424;28;20029;-77
2022/08/02 13:23:32;;;;;;;8.02;2.13;;;;;;;;;;5047896;28;20037;-79
2022/08/02 13:25:58;;;;;;;4.90;2.15;;;;;;;;;;5040107;28;20033;-76
2022/08/02 13:28:24;;;;;;;6.40;2.20;;;;;;;;;;5051157;28;20036;-76
2022/08/02 13:30:50;;;;;;;4.13;2.13;;;;;;;;;;5053072;28;20403;-77
2022/08/02 13:33:16;;;;;;;3.05;1.75;;;;;;;;;;5045979;28;20050;-79
2022/08/02 13:35:43;;;;;;;4.43;2.10;;;;;;;;;;5034312;28;20037;-78
2022/08/02 13:38:10;;;;;;;4.00;2.10;;;;;;;;;;5045617;28;20041;-74
2022/08/02 13:43:21;;;;;;;3.72;2.10;;;;;;;;;;5054029;28;20760;-77
2022/08/02 13:45:47;;;;;;;3.42;1.90;;;;;;;;;;5055477;28;20037;-77
2022/08/02 13:48:13;;;;;;;6.80;2.20;;;;;;;;;;5055351;28;20055;-77
2022/08/02 13:50:39;;;;;;;3.97;1.80;;;;;;;;;;5036747;28;20099;-77
2022/08/02 13:53:05;;;;;;;3.95;2.33;;;;;;;;;;5041378;28;20053;-75
2022/08/02 13:55:31;;;;;;;4.65;2.05;;;;;;;;;;5054256;28;20438;-76
2022/08/02 13:57:58;;;;;;;2.42;1.90;;;;;;;;;;5044040;28;20404;-75
2022/08/02 14:00:24;;;;;;;2.70;1.80;;;;;;;;;;5035031;28;20029;-79
2022/08/02 14:02:50;;;;;;;2.97;1.80;;;;;;;;;;5039310;28;20044;-77
2022/08/02 14:05:16;;;;;;;6.93;2.10;;;;;;;;;;5020088;28;20083;-77
2022/08/02 14:07:42;;;;;;;7.28;1.98;;;;;;;;;;5037499;28;20033;-74
2022/08/02 14:10:09;;;;;;;2.63;1.90;;;;;;;;;;5055064;28;20102;-76
2022/08/02 14:12:35;;;;;;;5.38;2.00;;;;;;;;;;5054100;28;20112;-76
2022/08/02 14:15:01;;;;;;;3.15;1.92;;;;;;;;;;5050452;28;20044;-74
2022/08/02 14:17:27;;;;;;;5.32;2.20;;;;;;;;;;5047091;28;20034;-80
2022/08/02 14:19:53;;;;;;;3.75;2.03;;;;;;;;;;5042850;28;20075;-75
2022/08/02 14:22:19;;;;;;;3.13;1.90;;;;;;;;;;5024750;28;20060;-75
2022/08/02 14:24:45;;;;;;;4.95;2.00;;;;;;;;;;5042383;28;20029;-76
2022/08/02 14:27:11;;;;;;;4.55;2.00;;;;;;;;;;5044460;28;20074;-76
2022/08/02 14:29:37;;;;;;;4.55;1.90;;;;;;;;;;5032229;28;20044;-79
2022/08/02 14:32:03;;;;;;;3.20;1.90;;;;;;;;;;5019224;28;20037;-77
2022/08/02 14:34:30;;;;;;;5.10;2.00;;;;;;;;;;5034124;28;20148;-76
2022/08/02 14:36:56;;;;;;;5.35;2.17;;;;;;;;;;5034724;28;20112;-78
2022/08/02 14:39:22;;;;;;;4.97;2.25;;;;;;;;;;5034845;28;20042;-74
2022/08/02 14:41:48;;;;;;;3.28;1.88;;;;;;;;;;5038812;28;20034;-75
2022/08/02 14:44:14;;;;;;;4.55;2.22;;;;;;;;;;5032573;28;20033;-75
2022/08/02 14:46:40;;;;;;;2.75;1.90;;;;;;;;;;5042806;28;20877;-75
2022/08/02 14:49:10;;;;;;;5.00;2.08;;;;;;;;;;5043741;28;20041;-75
2022/08/02 14:51:37;;;;;;;6.07;2.10;;;;;;;;;;5044093;28;20549;-74
2022/08/02 14:54:07;;;;;;;3.95;2.00;;;;;;;;;;5053195;28;20029;-76
2022/08/02 14:56:33;;;;;;;6.78;2.08;;;;;;;;;;5053249;28;20033;-81